Peru, Indiana
Current Conditions -  °F | °C
As of 6:58 AM on Thursday 18 Dec 2014 (Local Time) from KGUS Reporting Station
Overcast Overcast  
Wind Chill: 25°   Ceiling: 2300
Heat Index: 25°   Visibility: 10mi
Dew Point: 22°   Wind: 3mph
Humidity: 88%   Direction: 320°NW
Pressure: 30.27"   Gusts: NA
Location:  40.75°N, 86.07°W
Report Text: KGUS 181158Z AUTO 32003KT 10SM OVC023 M04/M05 A3027 RMK AO2 SLP265 T10381055 11035 21039 55002
Loading
Personal Weather Stations






























Interactive Weather Map New forecast layout! Learn more

10-Day Weather Forecast

Advertisements
Track Severe Weather on mobile